Record high temperature 100.8°F Record low temperature -75.5°F Record high gust 121.0 mph Record high average 61.8 mph Record daily rain 2.61 in. Record low windchill -106.6°F Record high barometer 31.889 in. Record low barometer 23.642 in.
Daily high pressure 31.498 in. Daily low pressure 29.731 in. Daily low windchill 35.6°F Daily high heat index 69.2°F Daily high gust speed 24.0 mph NW Daily high average speed 16.0 mph NNW
Weather Data
LAST READING AT TIME: 19:50 PM DATE: April 24 2015, time of next update: 08:00 pm
Current WeatherDry Current Temperature 52.1°F (11.2°C), Apparent temp 49.5°F
Maximum Temperature (since midnight)69.2°F at: 11:37 AM Minimum Temperature (since midnight)24.0°F at: 9:56 AM
Average windspeed (ten minute)3.6 mph Wind Direction (ten minute)NNW (342°)
Windchill Temperature 52.1°F Maximum Gust (last hour)19.6 mph at: 7:22 PM
Maximum Gust (since midnight)24.0 mph at: 2:50 PM Maximum 1 minute average (since midnight)16.0 mph at: 3:03 PM
Rainfall (last hour)0.00 in. (0.0 mm) Rainfall (since midnight)0.00 in. (0.0 mm) ---
Rainfall This month 0.89 in. (22.6 mm) Rainfall To date this year 2.69 in. (68.3 mm)
Maximum rain per minute (last hour)0.00 in/min Maximum rain per hour (last 6 hours)0.00 in/hour
Yesterdays rainfall 0.00 in DewPoint 31.9°F (Wet Bulb :43.9°F )
Humidity 46 %, Humidex 48.2°F Barometer corrected to msl29.771 in. (1008.2 hPa)
Pressure change 0.00 in. (last hour) Trend (last hour)STEADY
Pressure change (last 12 hours)-0.05 in Pressure change (last 6 hours)+0.04 in


Click here for the last 24 hour graph
Click here for the last 48 hour graph
Click here for the last 72 hour graph
Click here for the month to date graph


Weather report/warning/Metars

COLORADO SPRINGS MUNI, CO, United States (KCOS) 38-49N 104-43W 1856M
Apr 24, 2015 - 09:03 PM EDT / 2015.04.25 0103 UTC
Wind: from the NNW (330 degrees) at 14 MPH (12 KT) gusting to 24 MPH (21 KT):0
Visibility: 10 mile(s):0
Sky conditions: mostly cloudy
Weather: light rain
Precipitation last hour: A trace
Temperature: 53.1 F (11.7 C)
Dew Point: 30.0 F (-1.1 C)
Relative Humidity: 41%
Pressure (altimeter): 29.73 in. Hg (1006 hPa)
ob: KCOS 250103Z 33012G21KT 10SM -RA SCT080 BKN095 BKN180 12/M01 A2973 RMK AO2 WSHFT 0043 RAB0058 P0000 T01171011
cycle: 1
Air Force Academy, CO, United States (KAFF) 38-58N 104-49W 1999M
Apr 24, 2015 - 08:58 PM EDT / 2015.04.25 0058 UTC
Wind: from the NW (310 degrees) at 13 MPH (11 KT) gusting to 22 MPH (19 KT) (direction variable):0
Visibility: 10 mile(s):0
Sky conditions: clear
Temperature: 49.8 F (9.9 C)
Dew Point: 29.8 F (-1.2 C)
Relative Humidity: 45%
Pressure (altimeter): 29.73 in. Hg (1006 hPa)
ob: KAFF 250058Z AUTO 31011G19KT 280V340 10SM CLR 10/M01 A2973 RMK AO2 SLP027 T00991012
cycle: 1
Fort Carson, CO, United States (KFCS) 38-42N 104-46W 1789M
Apr 24, 2015 - 08:58 PM EDT / 2015.04.25 0058 UTC
Wind: from the N (360 degrees) at 16 MPH (14 KT) gusting to 23 MPH (20 KT):0
Visibility: 10 mile(s):0
Sky conditions: mostly cloudy
Temperature: 56.3 F (13.5 C)
Dew Point: 30.0 F (-1.1 C)
Relative Humidity: 36%
Pressure (altimeter): 29.69 in. Hg (1005 hPa)
ob: KFCS 250058Z AUTO 36014G20KT 10SM SCT075 BKN095 14/M01 A2969 RMK AO2 SLP046 T01351011
cycle: 1



The data is logged at two minute intervals, but there is data recorded every minute. Best viewed in 800 x 600 and True colour.

Use the RELOAD facility on your browser to retrieve the latest data.

Click here for a daily update of the averages/extremes to date for the month
Created by "Weather Display" software version 10.37R Build 78 at this start time/date 06:23 am 4/24/2015